Time;durP1;ratioP1;P1;durP2;ratioP2;P2;SDS_P1;SDS_P2;PMS_P1;PMS_P2;Temp;Humidity;BMP_temperature;BMP_pressure;BME280_temperature;BME280_humidity;BME280_pressure;Samples;Min_cycle;Max_cycle;Signal;HPM_P1;HPM_P2
2023/01/31 00:01:18;;;;;;;24.67;6.00;;;;;;;1.45;100.00;102330.66;5095619;28;20063;-80
2023/01/31 00:03:44;;;;;;;26.23;5.90;;;;;;;1.35;100.00;102325.16;5095811;28;20293;-79
2023/01/31 00:06:30;;;;;;;25.60;5.73;;;;;;;1.54;100.00;102320.22;5092984;28;20051;-79
2023/01/31 00:08:57;;;;;;;26.67;6.07;;;;;;;1.58;100.00;102330.59;5096311;28;20039;-80
2023/01/31 00:11:24;;;;;;;23.73;5.17;;;;;;;1.57;100.00;102331.56;5095555;28;20289;-79
2023/01/31 00:13:50;;;;;;;23.87;5.10;;;;;;;1.52;100.00;102326.56;5103072;28;20308;-84
2023/01/31 00:16:17;;;;;;;22.87;5.37;;;;;;;1.57;100.00;102333.38;5107203;28;20023;-84
2023/01/31 00:18:43;;;;;;;23.80;5.90;;;;;;;1.51;100.00;102335.53;5103078;28;20043;-84
2023/01/31 00:21:14;;;;;;;22.53;5.77;;;;;;;1.48;100.00;102335.78;5099687;28;20377;-84
2023/01/31 00:23:41;;;;;;;22.70;5.23;;;;;;;1.48;100.00;102340.25;5108204;28;20034;-84
2023/01/31 00:26:11;;;;;;;23.17;5.43;;;;;;;1.46;100.00;102353.72;5100104;28;20414;-80
2023/01/31 00:28:37;;;;;;;24.07;5.93;;;;;;;1.42;100.00;102352.25;5095006;28;20036;-80
2023/01/31 00:31:02;;;;;;;24.37;5.40;;;;;;;1.43;100.00;102361.97;5098033;28;20026;-84
2023/01/31 00:33:28;;;;;;;23.00;5.30;;;;;;;1.40;100.00;102348.84;5106225;28;20039;-84
2023/01/31 00:35:53;;;;;;;20.17;4.80;;;;;;;1.39;100.00;102349.81;5107107;28;20110;-84
2023/01/31 00:38:18;;;;;;;26.93;5.93;;;;;;;1.37;100.00;102349.06;5106456;28;20541;-84
2023/01/31 00:40:51;;;;;;;26.30;5.63;;;;;;;1.38;100.00;102344.59;5100949;28;20036;-80
2023/01/31 00:43:16;;;;;;;26.87;6.43;;;;;;;1.41;100.00;102339.00;5095783;28;20069;-79
2023/01/31 00:45:42;;;;;;;22.33;5.40;;;;;;;1.38;100.00;102333.91;5096098;28;20035;-79
2023/01/31 00:48:07;;;;;;;21.33;5.97;;;;;;;1.33;100.00;102321.75;5098691;28;20038;-79
2023/01/31 00:50:32;;;;;;;26.17;5.63;;;;;;;1.34;100.00;102338.63;5095681;28;20102;-79
2023/01/31 00:52:58;;;;;;;27.13;6.13;;;;;;;1.34;100.00;102325.28;5096813;28;20042;-79
2023/01/31 00:55:23;;;;;;;26.73;7.30;;;;;;;1.30;100.00;102337.97;5094273;28;20055;-79
2023/01/31 00:57:48;;;;;;;23.83;6.07;;;;;;;1.28;100.00;102329.25;5096044;28;20069;-79
2023/01/31 01:00:14;;;;;;;24.40;6.07;;;;;;;1.27;100.00;102332.88;5094470;28;20058;-79
2023/01/31 01:02:40;;;;;;;23.80;5.33;;;;;;;1.27;100.00;102326.69;5095764;28;20479;-79
2023/01/31 01:05:06;;;;;;;27.37;5.80;;;;;;;1.27;100.00;102326.69;5098598;28;20043;-79
2023/01/31 01:07:31;;;;;;;25.57;5.40;;;;;;;1.28;100.00;102331.06;5096337;28;20031;-79
2023/01/31 01:09:57;;;;;;;24.50;6.63;;;;;;;1.30;100.00;102327.31;5095522;28;20023;-79
2023/01/31 01:12:22;;;;;;;21.83;5.90;;;;;;;1.33;100.00;102320.88;5094231;28;20540;-79
2023/01/31 01:14:47;;;;;;;25.27;5.30;;;;;;;1.32;100.00;102320.03;5090798;28;20145;-79
2023/01/31 01:17:13;;;;;;;20.73;5.70;;;;;;;1.35;100.00;102308.28;5095640;28;20142;-79
2023/01/31 01:19:38;;;;;;;23.40;6.10;;;;;;;1.32;100.00;102306.69;5095041;28;20581;-80
2023/01/31 01:22:04;;;;;;;23.27;6.23;;;;;;;1.33;100.00;102302.19;5095908;28;20134;-79
2023/01/31 01:24:29;;;;;;;27.03;6.97;;;;;;;1.35;100.00;102292.25;5094420;28;20089;-79
2023/01/31 01:26:54;;;;;;;24.20;6.40;;;;;;;1.33;100.00;102288.84;5098076;28;20046;-80
2023/01/31 01:29:20;;;;;;;24.03;6.70;;;;;;;1.33;100.00;102284.38;5094750;28;20028;-79
2023/01/31 01:31:45;;;;;;;22.90;5.50;;;;;;;1.34;100.00;102285.22;5097725;28;20049;-79
2023/01/31 01:34:14;;;;;;;22.63;5.83;;;;;;;1.30;100.00;102284.56;5097721;28;20034;-79
2023/01/31 01:36:40;;;;;;;28.20;6.53;;;;;;;1.36;100.00;102291.31;5100317;28;20028;-79
2023/01/31 01:39:07;;;;;;;27.43;6.93;;;;;;;1.40;100.00;102294.56;5097796;28;20301;-79
2023/01/31 01:41:33;;;;;;;26.63;6.53;;;;;;;1.43;100.00;102287.19;5098158;28;20034;-79
2023/01/31 01:44:00;;;;;;;25.77;6.63;;;;;;;1.50;100.00;102291.09;5098429;28;20024;-79
2023/01/31 01:46:42;;;;;;;26.33;6.23;;;;;;;1.49;100.00;102284.03;5097255;28;20032;-80
2023/01/31 01:49:35;;;;;;;25.23;7.30;;;;;;;1.54;100.00;102294.38;5097727;28;20114;-79
2023/01/31 01:52:04;;;;;;;23.13;6.63;;;;;;;1.50;100.00;102279.56;5091312;28;20040;-79
2023/01/31 01:54:36;;;;;;;24.43;7.00;;;;;;;1.55;100.00;102276.53;5113033;27;21774;-79
2023/01/31 01:57:05;;;;;;;26.20;7.63;;;;;;;1.56;100.00;102283.59;5099803;28;20433;-80
2023/01/31 01:59:39;;;;;;;22.80;7.10;;;;;;;1.61;100.00;102278.75;5097349;28;20059;-79
2023/01/31 02:02:05;;;;;;;28.15;7.53;;;;;;;1.63;100.00;102276.78;5094819;28;20109;-79
2023/01/31 02:04:34;;;;;;;30.50;8.03;;;;;;;1.62;100.00;102273.28;5098493;28;20628;-79
2023/01/31 02:07:01;;;;;;;27.67;7.53;;;;;;;1.58;100.00;102281.63;5097896;28;20114;-79
2023/01/31 02:09:41;;;;;;;24.23;7.73;;;;;;;1.65;100.00;102290.91;5097300;28;20200;-79
2023/01/31 02:12:08;;;;;;;25.93;7.80;;;;;;;1.69;100.00;102295.88;5101201;28;20024;-84
2023/01/31 02:14:34;;;;;;;21.57;7.33;;;;;;;1.71;100.00;102293.09;5107339;28;20023;-84
2023/01/31 02:16:59;;;;;;;26.60;7.87;;;;;;;1.77;100.00;102291.75;5111560;28;20284;-84
2023/01/31 02:19:35;;;;;;;25.30;9.03;;;;;;;1.76;100.00;102290.06;5108635;28;20032;-85
2023/01/31 02:22:13;;;;;;;26.43;8.27;;;;;;;1.78;100.00;102298.81;5109406;28;20028;-84
2023/01/31 02:24:47;;;;;;;29.27;9.30;;;;;;;1.80;100.00;102296.88;5110972;28;20173;-84
2023/01/31 02:27:43;;;;;;;27.23;9.25;;;;;;;1.80;100.00;102300.41;5110414;28;20495;-84
2023/01/31 02:30:33;;;;;;;26.90;9.47;;;;;;;1.88;100.00;102310.50;5110388;28;20031;-85
2023/01/31 02:33:10;;;;;;;31.00;9.47;;;;;;;1.85;100.00;102311.59;5102891;28;20399;-84
2023/01/31 02:36:09;;;;;;;29.47;9.13;;;;;;;1.87;100.00;102305.28;5106788;28;20404;-84
2023/01/31 02:39:03;;;;;;;31.03;11.07;;;;;;;1.89;100.00;102301.53;5104025;28;20063;-80
2023/01/31 02:41:50;;;;;;;26.97;9.37;;;;;;;1.88;100.00;102296.28;5097628;28;20085;-80
2023/01/31 02:47:15;;;;;;;24.23;9.93;;;;;;;1.95;100.00;102292.19;5098100;28;20281;-79
2023/01/31 02:50:17;;;;;;;30.00;9.83;;;;;;;1.95;100.00;102284.16;5098264;28;20031;-84
2023/01/31 02:52:52;;;;;;;31.97;10.93;;;;;;;1.98;100.00;102289.25;5088584;28;20169;-79
2023/01/31 02:58:13;;;;;;;30.87;11.40;;;;;;;2.02;100.00;102285.38;5097284;28;20050;-79
2023/01/31 03:00:42;;;;;;;32.47;11.23;;;;;;;2.10;100.00;102282.09;5096552;28;20929;-79
2023/01/31 03:03:17;;;;;;;33.47;11.33;;;;;;;2.08;100.00;102279.56;5097007;28;20044;-79
2023/01/31 03:05:42;;;;;;;32.10;11.20;;;;;;;2.13;100.00;102280.00;5095762;28;20643;-80
2023/01/31 03:08:15;;;;;;;33.00;11.77;;;;;;;2.13;100.00;102281.84;5090474;28;20032;-79
2023/01/31 03:10:49;;;;;;;27.77;11.80;;;;;;;2.15;100.00;102274.56;5096040;28;20433;-79
2023/01/31 03:13:35;;;;;;;30.87;12.43;;;;;;;2.12;100.00;102267.66;5097877;28;20061;-79
2023/01/31 03:19:29;;;;;;;29.73;12.27;;;;;;;2.14;100.00;102272.88;5097730;28;20050;-79
2023/01/31 03:22:02;;;;;;;33.30;13.13;;;;;;;2.12;100.00;102266.78;5097798;28;20030;-79
2023/01/31 03:24:29;;;;;;;34.53;11.90;;;;;;;2.08;100.00;102273.34;5095838;28;20058;-79
2023/01/31 03:26:57;;;;;;;33.47;12.57;;;;;;;2.17;100.00;102288.66;5097051;28;20031;-79
2023/01/31 03:29:25;;;;;;;29.27;12.03;;;;;;;2.10;100.00;102274.09;5096449;28;20031;-79
2023/01/31 03:31:59;;;;;;;30.60;12.50;;;;;;;2.08;100.00;102263.50;5096708;28;20027;-79
2023/01/31 03:34:26;;;;;;;30.13;12.45;;;;;;;2.10;100.00;102260.72;5092538;28;20032;-79
2023/01/31 03:37:10;;;;;;;33.23;13.20;;;;;;;2.06;100.00;102259.25;5097267;28;20027;-79
2023/01/31 03:39:57;;;;;;;30.30;12.30;;;;;;;2.09;100.00;102259.00;5096644;28;20039;-79
2023/01/31 03:42:44;;;;;;;31.00;12.43;;;;;;;2.10;100.00;102255.38;5096049;28;21482;-79
2023/01/31 03:45:18;;;;;;;32.40;13.57;;;;;;;2.10;100.00;102253.53;5094970;28;20047;-79
2023/01/31 03:47:47;;;;;;;34.03;14.70;;;;;;;2.08;100.00;102250.13;5104450;28;20718;-84
2023/01/31 03:50:18;;;;;;;31.07;14.40;;;;;;;2.08;100.00;102246.59;5108888;28;20034;-84
2023/01/31 03:52:52;;;;;;;31.20;13.37;;;;;;;2.08;100.00;102238.56;5101234;28;20055;-84
2023/01/31 03:55:30;;;;;;;32.80;14.70;;;;;;;2.12;100.00;102237.34;5103703;28;20122;-84
2023/01/31 03:57:59;;;;;;;32.47;14.17;;;;;;;2.14;100.00;102238.94;5105334;28;20038;-85
2023/01/31 04:00:25;;;;;;;33.10;13.87;;;;;;;2.15;100.00;102240.66;5109188;28;20102;-85
2023/01/31 04:03:08;;;;;;;34.37;14.63;;;;;;;2.16;100.00;102237.00;5108494;28;20421;-84
2023/01/31 04:05:34;;;;;;;33.03;14.83;;;;;;;2.22;100.00;102237.47;5104757;28;20137;-85
2023/01/31 04:07:59;;;;;;;31.90;14.13;;;;;;;2.17;100.00;102240.53;5105903;28;20504;-85
2023/01/31 04:10:25;;;;;;;34.57;15.57;;;;;;;2.20;100.00;102234.91;5108542;28;20020;-85
2023/01/31 04:12:51;;;;;;;37.67;15.60;;;;;;;2.18;100.00;102232.38;5102668;28;20020;-84
2023/01/31 04:15:17;;;;;;;34.10;15.50;;;;;;;2.15;100.00;102237.13;5108627;28;20058;-84
2023/01/31 04:17:42;;;;;;;33.97;15.83;;;;;;;2.14;100.00;102241.63;5108301;28;20027;-85
2023/01/31 04:20:08;;;;;;;35.50;15.63;;;;;;;2.14;100.00;102230.09;5107879;28;20031;-85
2023/01/31 04:22:34;;;;;;;34.97;16.20;;;;;;;2.15;100.00;102232.63;5106151;28;20427;-85
2023/01/31 04:25:00;;;;;;;33.87;15.37;;;;;;;2.12;100.00;102232.88;5104244;28;20032;-84
2023/01/31 04:27:25;;;;;;;32.77;15.37;;;;;;;2.16;100.00;102229.00;5100298;28;20035;-84
2023/01/31 04:29:50;;;;;;;36.13;16.73;;;;;;;2.09;100.00;102222.41;5108727;28;20034;-85
2023/01/31 04:32:16;;;;;;;34.83;16.00;;;;;;;2.09;100.00;102225.09;5106207;28;20625;-84
2023/01/31 04:34:41;;;;;;;33.83;16.33;;;;;;;2.08;100.00;102226.06;5098420;28;20123;-85
2023/01/31 04:37:06;;;;;;;34.13;17.30;;;;;;;2.07;100.00;102232.38;5100732;28;20051;-84
2023/01/31 04:39:32;;;;;;;34.67;16.47;;;;;;;2.05;100.00;102226.31;5107084;28;20892;-85
2023/01/31 04:41:57;;;;;;;36.40;17.63;;;;;;;2.03;100.00;102231.78;5100369;28;20118;-80
2023/01/31 04:44:23;;;;;;;34.10;17.70;;;;;;;2.01;100.00;102223.03;5092444;28;20036;-79
2023/01/31 04:46:48;;;;;;;36.37;18.17;;;;;;;2.02;100.00;102222.03;5097735;28;20046;-80
2023/01/31 04:49:14;;;;;;;32.63;16.87;;;;;;;2.02;100.00;102210.50;5096072;28;20110;-80
2023/01/31 04:51:40;;;;;;;33.73;17.13;;;;;;;1.94;100.00;102202.25;5095439;28;20081;-79
2023/01/31 04:54:05;;;;;;;32.97;16.17;;;;;;;1.95;100.00;102209.31;5094610;28;20093;-79
2023/01/31 04:56:31;;;;;;;35.70;17.23;;;;;;;1.95;100.00;102193.25;5094337;28;20057;-80
2023/01/31 04:58:56;;;;;;;34.20;17.57;;;;;;;1.94;100.00;102191.56;5095868;28;20130;-79
2023/01/31 05:01:22;;;;;;;32.47;18.10;;;;;;;1.90;100.00;102184.75;5098367;28;20059;-79
2023/01/31 05:03:47;;;;;;;36.60;18.50;;;;;;;1.93;100.00;102190.72;5110044;28;20059;-85
2023/01/31 05:06:13;;;;;;;37.77;17.77;;;;;;;1.98;100.00;102187.66;5111813;28;20153;-85
2023/01/31 05:08:38;;;;;;;35.00;17.70;;;;;;;1.94;100.00;102192.41;5108027;28;20391;-84
2023/01/31 05:11:05;;;;;;;35.37;17.37;;;;;;;1.95;100.00;102187.91;5112769;28;20019;-84
2023/01/31 05:13:31;;;;;;;33.20;17.23;;;;;;;1.95;100.00;102191.44;5105016;28;20028;-84
2023/01/31 05:15:57;;;;;;;36.97;18.40;;;;;;;2.00;100.00;102191.09;5106536;28;20093;-85
2023/01/31 05:18:25;;;;;;;35.13;18.63;;;;;;;2.01;100.00;102190.97;5110991;28;20031;-84
2023/01/31 05:20:51;;;;;;;36.60;18.23;;;;;;;2.08;100.00;102195.78;5101830;28;20062;-84
2023/01/31 05:23:17;;;;;;;35.13;17.43;;;;;;;2.10;100.00;102189.34;5104287;28;20055;-85
2023/01/31 05:25:43;;;;;;;32.20;16.57;;;;;;;2.16;100.00;102194.22;5107934;28;20024;-85
2023/01/31 05:28:09;;;;;;;33.67;17.13;;;;;;;2.16;100.00;102190.69;5104476;28;20112;-85
2023/01/31 05:30:35;;;;;;;37.47;17.83;;;;;;;2.13;100.00;102186.44;5107232;28;20019;-79
2023/01/31 05:33:01;;;;;;;40.07;17.57;;;;;;;2.15;100.00;102179.16;5097139;28;20031;-79
2023/01/31 05:35:27;;;;;;;33.23;16.70;;;;;;;2.18;100.00;102175.38;5098600;28;20047;-79
2023/01/31 05:37:53;;;;;;;37.37;16.30;;;;;;;2.23;100.00;102177.66;5099006;28;20043;-79
2023/01/31 05:40:19;;;;;;;32.40;16.97;;;;;;;2.19;100.00;102169.91;5098968;28;20072;-79
2023/01/31 05:42:44;;;;;;;35.40;17.27;;;;;;;2.24;100.00;102169.50;5100053;28;20020;-80
2023/01/31 05:45:10;;;;;;;34.23;17.20;;;;;;;2.26;100.00;102161.38;5094973;28;20804;-79
2023/01/31 05:47:36;;;;;;;31.50;15.80;;;;;;;2.24;100.00;102171.34;5098002;28;20050;-80
2023/01/31 05:50:02;;;;;;;32.60;16.20;;;;;;;2.27;100.00;102158.59;5092590;28;20024;-79
2023/01/31 05:52:27;;;;;;;32.47;16.00;;;;;;;2.31;100.00;102157.38;5096676;28;20044;-79
2023/01/31 05:54:52;;;;;;;31.53;15.70;;;;;;;2.29;100.00;102163.81;5099354;28;20111;-84
2023/01/31 05:57:18;;;;;;;32.40;14.97;;;;;;;2.34;100.00;102159.78;5111696;28;20032;-85
2023/01/31 05:59:43;;;;;;;32.93;15.50;;;;;;;2.34;100.00;102158.94;5111452;28;20114;-85
2023/01/31 06:02:10;;;;;;;31.50;15.50;;;;;;;2.34;100.00;102164.28;5111776;28;20471;-84
2023/01/31 06:04:36;;;;;;;33.03;15.83;;;;;;;2.38;100.00;102168.41;5103943;28;20131;-85
2023/01/31 06:07:02;;;;;;;30.67;16.13;;;;;;;2.38;100.00;102173.78;5104288;28;20026;-85
2023/01/31 06:09:27;;;;;;;32.23;16.33;;;;;;;2.38;100.00;102168.41;5105179;28;20106;-84
2023/01/31 06:11:53;;;;;;;29.87;15.47;;;;;;;2.37;100.00;102166.72;5106033;28;20091;-84
2023/01/31 06:14:18;;;;;;;30.97;14.83;;;;;;;2.41;100.00;102162.81;5073396;28;20053;-79
2023/01/31 06:16:44;;;;;;;28.97;14.33;;;;;;;2.45;100.00;102156.22;5092289;28;20020;-79
2023/01/31 06:19:09;;;;;;;28.03;13.60;;;;;;;2.39;100.00;102150.53;5097156;28;20059;-79
2023/01/31 06:21:34;;;;;;;32.03;15.17;;;;;;;2.39;100.00;102158.56;5096439;28;20035;-79
2023/01/31 06:24:00;;;;;;;30.83;14.03;;;;;;;2.41;100.00;102151.25;5097467;28;20031;-79
2023/01/31 06:26:25;;;;;;;30.70;14.47;;;;;;;2.42;100.00;102159.16;5097752;28;20483;-80
2023/01/31 06:28:51;;;;;;;28.93;14.10;;;;;;;2.42;100.00;102163.66;5097710;28;20019;-79
2023/01/31 06:31:17;;;;;;;28.57;13.70;;;;;;;2.44;100.00;102156.38;5099613;28;20039;-79
2023/01/31 06:33:42;;;;;;;28.13;13.77;;;;;;;2.44;100.00;102151.84;5098621;28;20371;-80
2023/01/31 06:36:08;;;;;;;30.60;13.70;;;;;;;2.51;100.00;102157.53;5097221;28;20016;-80
2023/01/31 06:38:33;;;;;;;28.63;13.43;;;;;;;2.50;100.00;102146.00;5101808;28;20102;-84
2023/01/31 06:40:58;;;;;;;28.43;13.00;;;;;;;2.52;100.00;102137.84;5111594;28;20425;-85
2023/01/31 06:43:24;;;;;;;28.50;13.60;;;;;;;2.51;100.00;102139.66;5111982;28;20064;-85
2023/01/31 06:45:49;;;;;;;25.33;12.50;;;;;;;2.57;100.00;102118.72;5109611;28;20076;-85
2023/01/31 06:48:15;;;;;;;25.30;12.80;;;;;;;2.57;100.00;102110.69;5100561;28;20024;-85
2023/01/31 06:50:42;;;;;;;30.57;14.40;;;;;;;2.60;100.00;102115.78;5110641;28;20475;-85
2023/01/31 06:53:08;;;;;;;31.03;13.80;;;;;;;2.61;100.00;102126.38;5108571;28;20030;-85
2023/01/31 06:55:33;;;;;;;27.93;11.97;;;;;;;2.64;100.00;102127.97;5089264;28;20027;-85
2023/01/31 06:57:58;;;;;;;27.13;12.27;;;;;;;2.65;100.00;102133.19;5099939;28;20387;-85
2023/01/31 07:00:24;;;;;;;29.23;13.23;;;;;;;2.64;100.00;102133.31;5109773;28;20402;-84
2023/01/31 07:02:51;;;;;;;30.47;12.77;;;;;;;2.64;100.00;102139.50;5106392;28;20023;-84
2023/01/31 07:05:17;;;;;;;28.40;12.13;;;;;;;2.68;100.00;102135.59;5103456;28;20048;-85
2023/01/31 07:07:42;;;;;;;32.33;13.90;;;;;;;2.64;100.00;102127.97;5097701;28;20137;-84
2023/01/31 07:10:09;;;;;;;28.13;13.57;;;;;;;2.68;100.00;102116.03;5108355;28;20028;-85
2023/01/31 07:12:34;;;;;;;25.80;11.97;;;;;;;2.70;100.00;102119.41;5110540;28;20020;-85
2023/01/31 07:15:00;;;;;;;27.13;12.50;;;;;;;2.70;100.00;102119.41;5104196;28;20039;-85
2023/01/31 07:17:25;;;;;;;28.90;12.93;;;;;;;2.76;100.00;102118.91;5107818;28;20039;-85
2023/01/31 07:19:51;;;;;;;27.37;12.47;;;;;;;2.75;100.00;102116.31;5109803;28;20490;-84
2023/01/31 07:22:16;;;;;;;29.20;11.87;;;;;;;2.80;100.00;102119.47;5078489;28;20510;-79
2023/01/31 07:24:42;;;;;;;27.40;11.67;;;;;;;2.91;100.00;102115.88;5095362;28;20132;-80
2023/01/31 07:27:07;;;;;;;25.03;10.93;;;;;;;2.90;100.00;102093.63;5097480;28;20032;-80
2023/01/31 07:29:32;;;;;;;24.83;11.20;;;;;;;3.03;100.00;102088.94;5097093;28;20032;-79
2023/01/31 07:31:58;;;;;;;25.73;11.73;;;;;;;3.07;100.00;102094.03;5095330;28;20142;-79
2023/01/31 07:34:23;;;;;;;25.37;10.17;;;;;;;3.14;100.00;102104.09;5095832;28;20028;-79
2023/01/31 07:36:49;;;;;;;25.13;10.10;;;;;;;3.16;100.00;102103.94;5095097;28;20027;-79
2023/01/31 07:39:15;;;;;;;24.93;10.33;;;;;;;3.25;100.00;102113.00;5096946;28;20068;-79
2023/01/31 07:41:40;;;;;;;25.50;9.70;;;;;;;3.38;100.00;102119.00;5096432;28;20032;-80
2023/01/31 07:44:07;;;;;;;23.27;9.03;;;;;;;3.43;100.00;102103.38;5097640;28;20945;-84
2023/01/31 07:46:34;;;;;;;24.27;9.40;;;;;;;3.50;100.00;102104.53;5103588;28;20035;-85
2023/01/31 07:48:59;;;;;;;26.37;10.53;;;;;;;3.50;100.00;102109.88;5107162;27;20068;-85
2023/01/31 07:51:25;;;;;;;23.87;9.27;;;;;;;3.63;100.00;102098.09;5105591;28;20952;-85
2023/01/31 07:53:50;;;;;;;24.07;9.03;;;;;;;3.53;100.00;102090.03;5097345;28;20388;-85
2023/01/31 07:56:18;;;;;;;22.57;9.33;;;;;;;3.52;100.00;102096.34;5107194;28;20033;-84
2023/01/31 07:58:45;;;;;;;26.20;9.57;;;;;;;3.57;100.00;102101.31;5109841;28;20027;-85
2023/01/31 08:04:10;;;;;;;23.43;8.93;;;;;;;3.60;100.00;102093.84;5100919;28;20051;-85
2023/01/31 08:06:37;;;;;;;23.27;8.40;;;;;;;3.61;100.00;102086.66;5104820;28;20058;-80
2023/01/31 08:09:02;;;;;;;21.13;8.80;;;;;;;3.61;100.00;102084.00;5078490;28;20420;-80
2023/01/31 08:11:28;;;;;;;23.73;8.43;;;;;;;3.68;100.00;102077.94;5095577;28;20016;-80
2023/01/31 08:13:54;;;;;;;23.53;8.47;;;;;;;3.68;100.00;102072.56;5098999;28;20062;-79
2023/01/31 08:16:20;;;;;;;23.73;8.87;;;;;;;3.62;100.00;102067.78;5096558;28;20027;-81
2023/01/31 08:18:46;;;;;;;25.23;9.17;;;;;;;3.63;100.00;102076.66;5099129;28;20035;-81
2023/01/31 08:21:13;;;;;;;24.80;8.80;;;;;;;3.63;100.00;102068.59;5098704;28;20066;-81
2023/01/31 08:23:39;;;;;;;24.33;9.40;;;;;;;3.67;100.00;102081.63;5099447;28;20531;-81
2023/01/31 08:26:14;;;;;;;24.70;11.33;;;;;;;3.65;100.00;102072.00;5100054;28;20158;-87
2023/01/31 08:28:40;;;;;;;26.73;10.60;;;;;;;3.70;100.00;102069.78;5106635;28;20424;-87
2023/01/31 08:31:06;;;;;;;23.43;8.77;;;;;;;3.70;100.00;102070.63;5095659;28;20012;-87
2023/01/31 08:33:32;;;;;;;20.23;8.60;;;;;;;3.70;100.00;102064.41;5105744;28;20446;-87
2023/01/31 08:36:10;;;;;;;24.03;9.33;;;;;;;3.70;100.00;102062.56;5106577;28;20115;-87
2023/01/31 08:38:37;;;;;;;21.77;9.13;;;;;;;3.71;100.00;102055.38;5105055;28;20040;-87
2023/01/31 08:41:02;;;;;;;23.20;9.13;;;;;;;3.91;100.00;102052.75;5090499;28;20023;-87
2023/01/31 08:43:27;;;;;;;20.20;8.73;;;;;;;3.83;100.00;102048.91;5096068;28;20027;-86
2023/01/31 08:45:53;;;;;;;23.10;8.27;;;;;;;3.85;100.00;102052.31;5104515;28;20035;-81
2023/01/31 08:48:18;;;;;;;22.60;8.33;;;;;;;3.89;100.00;102044.84;5101157;28;20024;-81
2023/01/31 08:50:43;;;;;;;20.60;8.37;;;;;;;3.96;100.00;102037.09;5091334;28;20031;-80
2023/01/31 08:53:09;;;;;;;22.37;7.50;;;;;;;3.99;100.00;102042.19;5096658;28;20039;-81
2023/01/31 08:55:35;;;;;;;21.70;7.67;;;;;;;4.01;100.00;102029.47;5096821;28;20151;-81
2023/01/31 08:58:01;;;;;;;21.67;8.07;;;;;;;4.01;100.00;102026.78;5096849;28;20040;-81
2023/01/31 09:00:27;;;;;;;21.63;8.17;;;;;;;4.08;100.00;102029.75;5101347;28;20435;-81
2023/01/31 09:02:53;;;;;;;22.90;7.80;;;;;;;4.14;100.00;102032.72;5097126;28;20024;-80
2023/01/31 09:05:18;;;;;;;19.87;7.93;;;;;;;4.18;100.00;102033.31;5098894;28;20066;-81
2023/01/31 09:07:44;;;;;;;19.97;7.70;;;;;;;4.25;100.00;102036.28;5095595;28;20066;-79
2023/01/31 09:10:09;;;;;;;22.13;8.10;;;;;;;4.23;100.00;102026.53;5095850;28;20035;-79
2023/01/31 09:12:35;;;;;;;23.90;8.10;;;;;;;4.26;100.00;102027.22;5092498;28;20124;-79
2023/01/31 09:15:02;;;;;;;21.33;8.13;;;;;;;4.26;100.00;102029.91;5094704;28;20035;-79
2023/01/31 09:17:27;;;;;;;22.53;7.97;;;;;;;4.27;100.00;102013.69;5093213;28;20040;-79
2023/01/31 09:19:53;;;;;;;20.37;7.30;;;;;;;4.31;100.00;102024.97;5078262;28;20089;-79
2023/01/31 09:22:19;;;;;;;20.80;7.43;;;;;;;4.38;100.00;102002.78;5092598;28;20041;-79
2023/01/31 09:24:45;;;;;;;20.17;7.40;;;;;;;4.42;100.00;101999.81;5077801;28;20536;-79
2023/01/31 09:27:11;;;;;;;19.17;7.23;;;;;;;4.49;100.00;102001.81;5095393;28;20071;-79
2023/01/31 09:29:37;;;;;;;15.87;7.20;;;;;;;4.59;100.00;102006.31;5092233;28;20173;-80
2023/01/31 09:32:03;;;;;;;19.57;7.00;;;;;;;4.72;100.00;102017.59;5093101;28;20032;-79
2023/01/31 09:34:28;;;;;;;19.37;7.00;;;;;;;4.70;100.00;102017.72;5093076;28;20040;-85
2023/01/31 09:36:56;;;;;;;18.23;7.07;;;;;;;4.77;100.00;102009.94;5098665;28;20054;-85
2023/01/31 09:39:23;;;;;;;18.13;7.43;;;;;;;4.82;100.00;102012.19;5104237;28;20031;-79
2023/01/31 09:41:54;;;;;;;23.03;8.13;;;;;;;4.89;100.00;102005.25;5088048;28;20147;-79
2023/01/31 09:44:33;;;;;;;18.13;7.30;;;;;;;4.94;100.00;102004.78;5093616;28;20117;-79
2023/01/31 09:47:14;;;;;;;24.00;7.33;;;;;;;4.98;100.00;101999.00;5090672;28;20035;-80
2023/01/31 09:49:53;;;;;;;21.90;7.77;;;;;;;4.99;100.00;102013.28;5097681;28;21712;-79
2023/01/31 09:52:21;;;;;;;22.93;7.70;;;;;;;5.08;100.00;102012.41;5096880;28;20034;-79
2023/01/31 09:54:46;;;;;;;21.63;7.53;;;;;;;5.14;100.00;102000.22;5090861;28;20043;-79
2023/01/31 09:57:11;;;;;;;19.13;7.27;;;;;;;5.21;100.00;101996.78;5097323;28;20145;-79
2023/01/31 09:59:49;;;;;;;21.93;7.70;;;;;;;5.25;100.00;101986.59;5097988;28;20039;-79
2023/01/31 10:02:29;;;;;;;20.03;7.13;;;;;;;5.23;100.00;101994.78;5091431;28;20095;-79
2023/01/31 10:05:36;;;;;;;21.40;7.23;;;;;;;5.24;100.00;102001.84;5096999;28;20175;-79
2023/01/31 10:08:09;;;;;;;18.27;7.30;;;;;;;5.21;100.00;101999.47;5098448;28;20027;-85
2023/01/31 10:10:45;;;;;;;21.60;8.03;;;;;;;5.21;100.00;101988.72;5104994;28;20032;-85
2023/01/31 10:13:15;;;;;;;19.37;7.67;;;;;;;5.32;100.00;101992.22;5105561;28;20027;-85
2023/01/31 10:15:45;;;;;;;20.33;7.63;;;;;;;5.39;100.00;101985.25;5102924;28;20027;-85
2023/01/31 10:18:17;;;;;;;20.23;7.87;;;;;;;5.41;100.00;101985.94;5103705;28;20075;-84
2023/01/31 10:20:51;;;;;;;21.07;8.60;;;;;;;5.40;100.00;102006.59;5106834;27;20031;-85
2023/01/31 10:23:20;;;;;;;23.58;9.55;;;;;;;5.36;100.00;101999.00;5108609;28;20035;-85
2023/01/31 10:25:55;;;;;;;24.03;10.30;;;;;;;5.41;100.00;101996.69;5109306;28;20023;-85
2023/01/31 10:28:41;;;;;;;23.40;11.18;;;;;;;5.36;100.00;102009.75;5102162;28;20034;-85
2023/01/31 10:31:07;;;;;;;25.37;11.30;;;;;;;5.33;100.00;102007.34;5109458;28;20027;-85
2023/01/31 10:34:14;;;;;;;24.40;12.03;;;;;;;5.35;100.00;102002.69;5105376;28;21936;-86
2023/01/31 10:37:02;;;;;;;27.57;12.23;;;;;;;5.33;100.00;102015.41;5066661;28;20468;-85
2023/01/31 10:40:02;;;;;;;24.50;13.37;;;;;;;5.36;100.00;102004.38;5104635;28;20096;-85
2023/01/31 10:42:38;;;;;;;28.17;14.17;;;;;;;5.37;100.00;101981.84;5097546;28;20495;-87
2023/01/31 10:45:07;;;;;;;30.07;14.93;;;;;;;5.38;100.00;102002.38;5104380;28;20036;-85
2023/01/31 10:47:40;;;;;;;26.47;14.90;;;;;;;5.44;100.00;101998.22;5106772;28;20032;-86
2023/01/31 10:50:17;;;;;;;25.67;14.93;;;;;;;5.47;100.00;101996.09;5108960;28;20486;-86
2023/01/31 10:53:00;;;;;;;31.97;15.63;;;;;;;5.52;100.00;101988.44;5107580;28;20024;-86
2023/01/31 10:55:40;;;;;;;27.83;16.30;;;;;;;5.53;100.00;101973.16;5097986;28;21869;-80
2023/01/31 10:58:13;;;;;;;29.40;17.67;;;;;;;5.51;100.00;101981.38;5096153;28;20055;-80
2023/01/31 11:00:39;;;;;;;29.90;17.90;;;;;;;5.54;100.00;101986.44;5096704;28;20027;-85
2023/01/31 11:03:04;;;;;;;29.97;18.07;;;;;;;5.65;100.00;101973.78;5108816;28;20364;-86
2023/01/31 11:05:30;;;;;;;28.53;18.20;;;;;;;5.66;100.00;101972.81;5089028;28;20047;-86
2023/01/31 11:07:59;;;;;;;30.33;18.13;;;;;;;5.64;100.00;101983.69;5104310;28;20031;-86
2023/01/31 11:10:28;;;;;;;29.13;19.53;;;;;;;5.65;100.00;101976.47;5108035;28;20039;-86
2023/01/31 11:12:58;;;;;;;27.23;18.67;;;;;;;5.69;100.00;101967.94;5109365;28;20107;-86
2023/01/31 11:15:27;;;;;;;29.13;18.93;;;;;;;5.71;100.00;101955.22;5110729;28;20088;-86
2023/01/31 11:17:58;;;;;;;30.00;18.37;;;;;;;5.68;100.00;101960.88;5111645;28;20157;-86
2023/01/31 11:20:31;;;;;;;27.10;17.90;;;;;;;5.70;100.00;101953.50;5108507;28;20023;-85
2023/01/31 11:23:00;;;;;;;30.60;19.10;;;;;;;5.75;100.00;101944.97;5107453;28;20028;-85
2023/01/31 11:25:27;;;;;;;30.10;17.43;;;;;;;5.78;100.00;101933.94;5102112;28;20509;-85
2023/01/31 11:27:56;;;;;;;30.63;18.13;;;;;;;5.82;100.00;101942.50;5111313;28;20027;-86
2023/01/31 11:30:26;;;;;;;27.97;16.97;;;;;;;5.79;100.00;101948.22;5109030;28;20024;-85
2023/01/31 11:32:52;;;;;;;29.43;17.23;;;;;;;5.76;100.00;101933.22;5096981;28;20036;-81